Pacific - South Coast: Past 24 Hour Conditions

 

Sartine Island

04:00 PM PDT 26 March 2015
Disclaimer

This table is a summary of hourly weather conditions for the past 24 hours.
Please note that these observations might not always be representative of weather conditions over their associated marine area.

Date / Time
(PDT)
Wind(knots) Conditions Visibility(km) Pressure(kPa) Air tempC) Relative humidity(%) Dew pointC)
26 March 2015
16:00 SSW 16 N/A N/A 101.7 10 100 10
15:00 SSE 31 N/A N/A 101.6 10 100 10
14:00 SSE 24 N/A N/A 101.8 10 100 10
13:00 SSE 19 N/A N/A 101.8 10 100 10
12:00 S 17 N/A N/A 101.8 10 100 10
11:00 S 16 N/A N/A 101.8 10 100 10
10:00 SSW 16 N/A N/A 101.8 10 100 10
9:00 S 19 N/A N/A 101.8 10 100 10
8:00 S 21 N/A N/A 101.8 10 100 10
7:00 SSW 21 N/A N/A 101.7 10 100 10
6:00 S 20 N/A N/A 101.7 10 100 10
5:00 SSW 24 gust 29 N/A N/A 101.6 10 100 10
4:00 SSW 31 N/A N/A 101.5 11 100 11
3:00 SSW 34 N/A N/A 101.4 11 100 11
2:00 S 32 N/A N/A 101.4 10 100 10
1:00 S 26 N/A N/A 101.4 10 100 10
0:00 S 20 N/A N/A 101.5 10 100 10
25 March 2015
23:00 SSE 21 N/A N/A 101.5 10 100 10
22:00 SSE 16 N/A N/A 101.6 10 100 10
21:00 S 18 N/A N/A 101.5 10 100 10
20:00 S 17 N/A N/A 101.5 10 100 10
19:00 S 21 N/A N/A 101.5 10 99 10
18:00 S 20 N/A N/A 101.5 10 100 10
17:00 S 19 N/A N/A 101.4 10 100 10
16:00 S 22 N/A N/A 101.4 10 100 10

Zoom-in to make a selection

Map of Pacific - South Coast marine weather areas Tsawwassen Ferry Terminal South Nomad - 46036 Sentry Shoal - 46131 South Brooks - 46132 Halibut Bank - 46146 South Moresby - 46147 South Hecate Strait - 46185 West Sea Otter - 46204 La Perouse Bank - 46206 East Dellwood - 46207 Discovery Island Esquimalt Harbour Kelp Reefs Malahat Race Rocks Lightstation Saturna Island Sheringham Point University of Victoria Victoria Gonzales Victoria Int'l Airport Ballenas Islands Campbell River Airport Comox Airport Entrance Island Fanny Island Nanaimo Airport Port Hardy Airport Sisters Islets Estevan Point Sartine Island Solander Island Tofino Airport Grief Point Powell River Airport Sechelt Cape St.James Bella Bella Airport Bella Coola Airport Cathedral Point Herbert Island Point Atkinson Sand Heads Lightstation Vancouver Harbour Vancouver Int'l Airport West Vancouver Port Alberni Howe Sound - Pam Rocks Squamish Airport
Legend:
buoy Buoy
land station Land Station

Pacific - South Coast Area

Another Region

What we are doing

Date modified: